Lantana, Texas
Current Conditions -  °F | °C
As of 3:53 AM on Thursday 23 Oct 2014 (Local Time) from KDTO Reporting Station
Overcast Overcast  
Wind Chill: 65°   Ceiling: 8000
Heat Index: 65°   Visibility: 10mi
Dew Point: 58°   Wind: 5mph
Humidity: 78%   Direction: 130°SE
Pressure: 30.12"   Gusts: NA
Location:  33.108°N, 97.1641°W
Report Text: KDTO 230853Z AUTO 13004KT 10SM OVC080 18/14 A3012 RMK AO2 RAB0757E15 SLP191 P0001 60001 T01830144 51005
Loading
Personal Weather Stations






























Interactive Weather Map
Tropical Storm Tracking
New forecast layout! Learn more

10-Day Weather Forecast

Advertisements
Track Severe Weather on mobile